Time;durP1;ratioP1;P1;durP2;ratioP2;P2;SDS_P1;SDS_P2;PMS_P1;PMS_P2;Temp;Humidity;BMP_temperature;BMP_pressure;BME280_temperature;BME280_humidity;BME280_pressure;Samples;Min_cycle;Max_cycle;Signal;HPM_P1;HPM_P2
2022/07/06 00:01:24;;;;;;;1.70;1.00;;;21.40;64.20;;;;;;5012672;28;20026;-88
2022/07/06 00:03:49;;;;;;;1.45;1.00;;;21.40;64.40;;;;;;5023677;28;20034;-89
2022/07/06 00:06:16;;;;;;;4.50;1.20;;;21.40;64.70;;;;;;5018039;28;20033;-88
2022/07/06 00:08:43;;;;;;;2.80;1.33;;;21.30;64.80;;;;;;5030169;28;20075;-88
2022/07/06 00:11:08;;;;;;;1.88;1.17;;;21.30;65.00;;;;;;5018778;28;20017;-89
2022/07/06 00:13:34;;;;;;;2.15;0.98;;;21.30;65.20;;;;;;5023553;28;20026;-88
2022/07/06 00:16:00;;;;;;;2.97;1.20;;;21.30;65.50;;;;;;5025973;28;20026;-88
2022/07/06 00:18:25;;;;;;;6.90;1.40;;;21.20;65.50;;;;;;5016352;28;20052;-88
2022/07/06 00:20:51;;;;;;;3.17;1.10;;;21.20;65.90;;;;;;5031958;28;20022;-87
2022/07/06 00:23:17;;;;;;;3.10;1.27;;;21.20;66.10;;;;;;5025384;28;20026;-88
2022/07/06 00:25:42;;;;;;;1.88;1.60;;;21.20;66.60;;;;;;5022500;28;20033;-88
2022/07/06 00:28:08;;;;;;;4.57;1.23;;;21.10;66.70;;;;;;5018544;28;20065;-88
2022/07/06 00:30:34;;;;;;;2.88;1.50;;;21.10;67.00;;;;;;5014754;28;20030;-88
2022/07/06 00:32:59;;;;;;;5.00;1.50;;;21.00;67.20;;;;;;5020143;28;20029;-88
2022/07/06 00:35:26;;;;;;;3.45;1.40;;;21.00;67.30;;;;;;5028659;28;20021;-88
2022/07/06 00:37:52;;;;;;;1.25;1.10;;;21.00;67.80;;;;;;5028679;28;20471;-88
2022/07/06 00:40:18;;;;;;;1.52;1.40;;;21.00;68.00;;;;;;5020490;28;20030;-88
2022/07/06 00:42:45;;;;;;;2.00;1.40;;;20.90;68.10;;;;;;5033421;28;20033;-89
2022/07/06 00:45:13;;;;;;;4.25;1.35;;;20.90;68.20;;;;;;5032332;28;20025;-87
2022/07/06 00:47:40;;;;;;;2.47;1.30;;;20.90;68.40;;;;;;5026386;28;20054;-88
2022/07/06 00:50:22;;;;;;;2.85;1.27;;;20.80;68.40;;;;;;5016173;28;20160;-88
2022/07/06 00:52:53;;;;;;;3.85;1.23;;;20.80;68.80;;;;;;5033035;28;20021;-88
2022/07/06 00:55:27;;;;;;;4.70;1.60;;;20.80;69.00;;;;;;5022587;28;20023;-88
2022/07/06 00:57:54;;;;;;;2.95;1.30;;;20.80;69.20;;;;;;5025656;28;20153;-88
2022/07/06 01:00:22;;;;;;;3.13;1.38;;;20.80;69.40;;;;;;5032311;28;20018;-88
2022/07/06 01:02:48;;;;;;;5.90;1.60;;;20.70;69.60;;;;;;5019747;28;20026;-88
2022/07/06 01:05:15;;;;;;;4.82;1.30;;;20.70;69.80;;;;;;5029047;28;20107;-88
2022/07/06 01:07:43;;;;;;;3.42;1.27;;;20.70;70.00;;;;;;5026170;28;20033;-88
2022/07/06 01:10:11;;;;;;;3.60;1.17;;;20.70;70.20;;;;;;5022720;28;20133;-88
2022/07/06 01:12:39;;;;;;;4.90;1.50;;;20.70;70.10;;;;;;5034316;28;20022;-88
2022/07/06 01:15:07;;;;;;;2.28;1.20;;;20.70;70.20;;;;;;5030213;28;20112;-87
2022/07/06 01:17:34;;;;;;;2.35;1.42;;;20.70;70.50;;;;;;5024649;28;20037;-88
2022/07/06 01:20:09;;;;;;;3.58;1.73;;;20.60;70.90;;;;;;5022318;28;20022;-87
2022/07/06 01:22:34;;;;;;;3.38;1.33;;;20.60;71.50;;;;;;5033003;28;20025;-88
2022/07/06 01:25:00;;;;;;;2.22;1.33;;;20.60;71.30;;;;;;5019143;28;20025;-88
2022/07/06 01:27:25;;;;;;;2.08;1.42;;;20.60;71.20;;;;;;5028815;28;20010;-88
2022/07/06 01:29:51;;;;;;;2.50;1.63;;;20.60;71.30;;;;;;5026551;28;20029;-87
2022/07/06 01:32:17;;;;;;;3.35;1.30;;;20.60;71.30;;;;;;5020038;28;20463;-88
2022/07/06 01:34:42;;;;;;;2.78;1.52;;;20.60;71.60;;;;;;5031590;28;20044;-88
2022/07/06 01:37:08;;;;;;;3.63;1.63;;;20.60;71.80;;;;;;5015994;28;20084;-88
2022/07/06 01:39:34;;;;;;;4.13;1.83;;;20.50;72.00;;;;;;5023360;28;20044;-88
2022/07/06 01:41:59;;;;;;;5.07;1.70;;;20.50;72.20;;;;;;5021925;28;20391;-88
2022/07/06 01:44:25;;;;;;;4.32;1.50;;;20.40;72.20;;;;;;5031138;28;20039;-88
2022/07/06 01:46:51;;;;;;;2.25;1.30;;;20.40;72.40;;;;;;5018423;28;20584;-88
2022/07/06 01:49:16;;;;;;;3.50;1.65;;;20.40;72.50;;;;;;5028035;28;20095;-88
2022/07/06 01:51:42;;;;;;;4.60;1.50;;;20.30;72.70;;;;;;5025008;28;20108;-87
2022/07/06 01:54:07;;;;;;;4.53;1.52;;;20.40;72.80;;;;;;5032320;28;20053;-88
2022/07/06 01:56:33;;;;;;;3.45;1.48;;;20.40;72.80;;;;;;5033310;28;20021;-88
2022/07/06 01:58:59;;;;;;;4.28;1.55;;;20.30;73.00;;;;;;5019220;28;20032;-88
2022/07/06 02:01:24;;;;;;;2.65;1.45;;;20.30;73.10;;;;;;5028157;28;20029;-88
2022/07/06 02:03:50;;;;;;;2.38;1.52;;;20.30;73.40;;;;;;5027050;28;20060;-87
2022/07/06 02:06:16;;;;;;;3.75;1.30;;;20.20;73.50;;;;;;5019699;28;20081;-87
2022/07/06 02:08:42;;;;;;;2.55;1.40;;;20.20;74.00;;;;;;5032067;28;20036;-88
2022/07/06 02:11:09;;;;;;;5.97;1.80;;;20.20;74.00;;;;;;5020052;28;20022;-88
2022/07/06 02:13:35;;;;;;;3.08;1.30;;;20.10;74.10;;;;;;5025674;28;20022;-88
2022/07/06 02:16:02;;;;;;;3.42;1.50;;;20.10;74.30;;;;;;5027698;28;20097;-88
2022/07/06 02:18:28;;;;;;;2.55;1.35;;;20.00;74.50;;;;;;5017972;28;20124;-87
2022/07/06 02:20:54;;;;;;;3.13;1.45;;;20.00;74.50;;;;;;5031206;28;20060;-89
2022/07/06 02:23:20;;;;;;;2.00;1.50;;;20.00;74.60;;;;;;5021100;28;20025;-88
2022/07/06 02:25:46;;;;;;;2.42;1.38;;;19.90;75.00;;;;;;5023866;28;20036;-88
2022/07/06 02:28:12;;;;;;;4.82;1.42;;;19.90;75.10;;;;;;5028035;28;20043;-88
2022/07/06 02:30:37;;;;;;;1.83;1.30;;;19.90;75.40;;;;;;5018712;28;20106;-88
2022/07/06 02:33:03;;;;;;;3.78;1.40;;;19.90;75.40;;;;;;5028433;28;20033;-88
2022/07/06 02:35:29;;;;;;;3.45;1.50;;;19.80;75.50;;;;;;5021805;28;20037;-87
2022/07/06 02:37:55;;;;;;;2.55;1.48;;;19.70;75.60;;;;;;5022691;28;20084;-88
2022/07/06 02:40:20;;;;;;;4.40;1.30;;;19.70;75.80;;;;;;5028511;28;20462;-88
2022/07/06 02:42:46;;;;;;;3.75;1.60;;;19.70;75.80;;;;;;5017122;28;20041;-87
2022/07/06 02:45:12;;;;;;;3.05;1.30;;;19.70;76.00;;;;;;5018610;28;20098;-88
2022/07/06 02:47:38;;;;;;;6.00;1.15;;;19.60;76.20;;;;;;5023187;28;20066;-87
2022/07/06 02:50:05;;;;;;;3.28;1.10;;;19.60;76.50;;;;;;5021560;28;20455;-89
2022/07/06 02:52:31;;;;;;;3.72;1.48;;;19.60;76.50;;;;;;5030525;28;20048;-88
2022/07/06 02:54:56;;;;;;;3.25;1.40;;;19.60;76.40;;;;;;5017772;28;20022;-88
2022/07/06 02:57:22;;;;;;;6.15;1.38;;;19.60;76.70;;;;;;5026597;28;20517;-87
2022/07/06 02:59:49;;;;;;;3.38;1.10;;;19.50;76.70;;;;;;5025343;28;20021;-88
2022/07/06 03:02:16;;;;;;;3.53;1.40;;;19.50;76.80;;;;;;5018534;28;20033;-87
2022/07/06 03:04:41;;;;;;;3.38;1.35;;;19.50;77.00;;;;;;5030109;28;20030;-88
2022/07/06 03:07:07;;;;;;;2.28;1.30;;;19.50;77.20;;;;;;5013361;28;20438;-87
2022/07/06 03:09:33;;;;;;;4.40;1.13;;;19.50;77.30;;;;;;5023548;28;20037;-87
2022/07/06 03:11:59;;;;;;;3.50;1.30;;;19.50;77.20;;;;;;5020847;28;20030;-87
2022/07/06 03:14:25;;;;;;;2.42;1.20;;;19.50;77.40;;;;;;5030630;28;20459;-88
2022/07/06 03:16:51;;;;;;;2.30;1.20;;;19.50;77.50;;;;;;5017938;28;20075;-88
2022/07/06 03:19:17;;;;;;;2.47;1.17;;;19.40;77.60;;;;;;5026093;28;20054;-88
2022/07/06 03:21:42;;;;;;;2.03;1.15;;;19.40;77.60;;;;;;5023171;28;20030;-88
2022/07/06 03:24:08;;;;;;;3.17;1.17;;;19.40;78.00;;;;;;5019640;28;20032;-88
2022/07/06 03:26:34;;;;;;;3.40;1.20;;;19.40;78.10;;;;;;5030606;28;20459;-88
2022/07/06 03:28:59;;;;;;;8.75;1.50;;;19.40;77.80;;;;;;5018285;28;20508;-87
2022/07/06 03:31:25;;;;;;;4.90;1.30;;;19.40;78.00;;;;;;5025587;28;20022;-88
2022/07/06 03:33:51;;;;;;;2.53;1.13;;;19.30;78.40;;;;;;5025707;28;20032;-87
2022/07/06 03:36:17;;;;;;;3.88;1.30;;;19.30;78.30;;;;;;5017552;28;20026;-87
2022/07/06 03:38:43;;;;;;;3.00;1.08;;;19.20;78.80;;;;;;5029907;28;20037;-87
2022/07/06 03:41:09;;;;;;;5.25;1.10;;;19.20;78.50;;;;;;5017631;28;20022;-87
2022/07/06 03:43:34;;;;;;;2.03;1.10;;;19.20;78.60;;;;;;5027249;28;20076;-86
2022/07/06 03:46:00;;;;;;;3.30;1.60;;;19.20;78.90;;;;;;5019498;28;20049;-86
2022/07/06 03:48:26;;;;;;;3.67;2.10;;;19.20;79.30;;;;;;5013526;28;20036;-86
2022/07/06 03:50:51;;;;;;;1.40;1.00;;;19.10;79.10;;;;;;5029362;28;20026;-85
2022/07/06 03:53:17;;;;;;;3.88;1.00;;;19.00;79.50;;;;;;5018916;28;20029;-85
2022/07/06 03:55:42;;;;;;;1.70;1.10;;;19.00;80.50;;;;;;5022456;28;20113;-85
2022/07/06 03:58:08;;;;;;;3.78;1.20;;;18.90;80.00;;;;;;5026991;28;20458;-85
2022/07/06 04:00:34;;;;;;;2.97;1.77;;;18.90;80.00;;;;;;5021084;28;20034;-87
2022/07/06 04:03:00;;;;;;;2.92;1.27;;;18.90;80.30;;;;;;5017502;28;20030;-86
2022/07/06 04:05:26;;;;;;;2.30;1.13;;;18.90;80.90;;;;;;5025011;28;20458;-86
2022/07/06 04:07:52;;;;;;;7.72;1.00;;;18.90;80.70;;;;;;5023251;28;20028;-86
2022/07/06 04:10:18;;;;;;;2.15;1.42;;;18.90;80.20;;;;;;5023370;28;20057;-87
2022/07/06 04:12:44;;;;;;;1.67;0.90;;;18.90;80.70;;;;;;5025330;28;20049;-86
2022/07/06 04:15:11;;;;;;;2.17;1.17;;;19.00;80.70;;;;;;5024859;28;20025;-87
2022/07/06 04:17:53;;;;;;;2.10;1.00;;;18.90;80.80;;;;;;5023849;28;20041;-87
2022/07/06 04:20:22;;;;;;;;;;;18.90;80.90;;;;;;5030141;28;20112;-87
2022/07/06 04:22:48;;;;;;;2.42;1.00;;;18.90;80.90;;;;;;5030412;28;19913;-87
2022/07/06 04:25:14;;;;;;;3.33;0.90;;;18.90;80.60;;;;;;5012693;28;20109;-87
2022/07/06 04:27:40;;;;;;;2.97;1.10;;;18.80;80.50;;;;;;5021877;28;20485;-86
2022/07/06 04:30:07;;;;;;;4.35;1.20;;;18.90;80.40;;;;;;5019139;28;20037;-86
2022/07/06 04:32:34;;;;;;;1.05;0.95;;;18.90;81.40;;;;;;5012394;28;20029;-86
2022/07/06 04:34:59;;;;;;;2.58;1.10;;;18.90;81.60;;;;;;5015867;28;20030;-87
2022/07/06 04:37:25;;;;;;;3.72;1.23;;;18.80;81.60;;;;;;5023956;28;20109;-86
2022/07/06 04:39:50;;;;;;;6.55;1.50;;;18.70;82.80;;;;;;5023725;28;20096;-85
2022/07/06 04:42:16;;;;;;;2.17;1.25;;;18.70;83.80;;;;;;5017038;28;20091;-86
2022/07/06 04:44:42;;;;;;;2.35;1.35;;;18.70;84.20;;;;;;5020658;28;20053;-86
2022/07/06 04:47:07;;;;;;;3.65;1.63;;;18.60;84.60;;;;;;5025835;28;20049;-86
2022/07/06 04:49:33;;;;;;;3.42;1.40;;;18.60;84.90;;;;;;5012457;28;20121;-87
2022/07/06 04:51:59;;;;;;;1.83;1.30;;;18.60;84.80;;;;;;5011842;28;20022;-88
2022/07/06 04:54:24;;;;;;;2.15;1.40;;;18.60;84.80;;;;;;5028066;28;20080;-86
2022/07/06 04:56:50;;;;;;;3.50;1.55;;;18.50;85.80;;;;;;5015263;28;20026;-86
2022/07/06 04:59:16;;;;;;;1.38;1.10;;;18.40;85.80;;;;;;5024908;28;20030;-86
2022/07/06 05:01:42;;;;;;;3.22;1.48;;;18.40;85.00;;;;;;5021466;28;20048;-86
2022/07/06 05:04:08;;;;;;;2.90;1.15;;;18.50;84.50;;;;;;5018054;28;20099;-87
2022/07/06 05:06:33;;;;;;;4.97;1.20;;;18.50;84.10;;;;;;5028007;28;20037;-87
2022/07/06 05:08:59;;;;;;;2.17;1.00;;;18.50;83.60;;;;;;5011742;28;20025;-89
2022/07/06 05:11:28;;;;;;;3.00;1.38;;;18.50;83.20;;;;;;5019452;28;20017;-86
2022/07/06 05:13:54;;;;;;;4.65;1.63;;;18.60;82.90;;;;;;5032094;28;20029;-86
2022/07/06 05:16:21;;;;;;;3.17;1.20;;;18.60;82.00;;;;;;5032992;28;20026;-86
2022/07/06 05:18:46;;;;;;;2.65;1.10;;;18.60;82.00;;;;;;5016729;28;20087;-86
2022/07/06 05:21:12;;;;;;;3.10;1.30;;;18.60;81.90;;;;;;5021782;28;20029;-85
2022/07/06 05:23:38;;;;;;;3.08;1.20;;;18.70;81.50;;;;;;5027724;28;20050;-86
2022/07/06 05:26:04;;;;;;;2.13;1.10;;;18.80;81.30;;;;;;5016499;28;20025;-86
2022/07/06 05:28:29;;;;;;;3.17;1.23;;;18.80;81.40;;;;;;5032325;28;20386;-87
2022/07/06 05:30:55;;;;;;;7.20;1.33;;;18.90;81.40;;;;;;5018957;28;20021;-88
2022/07/06 05:33:21;;;;;;;3.92;1.40;;;18.90;81.00;;;;;;5028368;28;20026;-86
2022/07/06 05:35:46;;;;;;;3.17;1.02;;;18.90;80.60;;;;;;5027216;28;20113;-86
2022/07/06 05:38:12;;;;;;;2.50;0.85;;;18.90;80.80;;;;;;5021746;28;20041;-87
2022/07/06 05:40:38;;;;;;;3.58;1.30;;;19.00;80.20;;;;;;5031310;28;20065;-87
2022/07/06 05:43:03;;;;;;;2.55;1.30;;;19.00;80.00;;;;;;5015459;28;20026;-86
2022/07/06 05:45:29;;;;;;;4.15;1.27;;;19.00;79.90;;;;;;5024560;28;20025;-86
2022/07/06 05:50:39;;;;;;;4.65;1.30;;;19.00;80.10;;;;;;5033112;28;20095;-87
2022/07/06 05:53:05;;;;;;;3.42;1.40;;;19.00;79.90;;;;;;5019710;28;20112;-86
2022/07/06 05:55:32;;;;;;;2.92;1.60;;;19.00;79.80;;;;;;5026307;28;20474;-86
2022/07/06 05:57:57;;;;;;;3.25;1.58;;;19.00;79.90;;;;;;5015941;28;20479;-87
2022/07/06 06:00:25;;;;;;;4.43;1.63;;;19.00;79.80;;;;;;5030121;28;20022;-86
2022/07/06 06:02:51;;;;;;;5.07;1.23;;;18.90;79.60;;;;;;5033594;28;20026;-87
2022/07/06 06:05:17;;;;;;;3.05;1.60;;;19.00;80.10;;;;;;5027511;28;20489;-87
2022/07/06 06:07:44;;;;;;;3.25;1.50;;;19.10;79.80;;;;;;5026226;28;20148;-87
2022/07/06 06:10:11;;;;;;;3.65;1.40;;;19.10;79.90;;;;;;5021746;28;20046;-88
2022/07/06 06:12:38;;;;;;;8.05;1.42;;;19.10;79.70;;;;;;5032748;28;20120;-87
2022/07/06 06:15:05;;;;;;;1.63;0.95;;;19.10;79.70;;;;;;5029586;28;20033;-88
2022/07/06 06:17:32;;;;;;;5.82;1.02;;;19.20;80.30;;;;;;5024530;28;20028;-87
2022/07/06 06:19:58;;;;;;;4.45;1.40;;;19.20;80.10;;;;;;5021713;28;20026;-87
2022/07/06 06:22:23;;;;;;;6.63;1.95;;;19.20;80.10;;;;;;5029949;28;20030;-87
2022/07/06 06:24:49;;;;;;;2.95;1.30;;;19.10;80.10;;;;;;5018483;28;20079;-87
2022/07/06 06:27:15;;;;;;;7.85;1.33;;;19.10;80.50;;;;;;5026488;28;20205;-87
2022/07/06 06:29:44;;;;;;;2.90;1.27;;;19.10;80.50;;;;;;5025503;28;20026;-88
2022/07/06 06:32:11;;;;;;;3.60;1.60;;;19.10;80.90;;;;;;5022538;28;20030;-87
2022/07/06 06:34:37;;;;;;;2.08;1.20;;;19.10;80.90;;;;;;5032631;28;20493;-87
2022/07/06 06:37:03;;;;;;;6.53;1.67;;;19.10;81.00;;;;;;5028415;28;20039;-86
2022/07/06 06:39:29;;;;;;;5.10;1.75;;;19.00;80.90;;;;;;5020781;28;20034;-88
2022/07/06 06:41:55;;;;;;;3.72;1.85;;;19.10;80.60;;;;;;5024282;28;20475;-89
2022/07/06 06:44:23;;;;;;;5.32;1.85;;;19.00;80.60;;;;;;5022466;28;20033;-89
2022/07/06 06:46:49;;;;;;;2.47;1.50;;;19.00;81.30;;;;;;5023904;28;20047;-88
2022/07/06 06:49:15;;;;;;;5.10;1.58;;;19.00;80.80;;;;;;5024499;28;20233;-88
2022/07/06 06:51:41;;;;;;;7.60;2.72;;;19.10;81.40;;;;;;5020090;28;20030;-88
2022/07/06 06:54:06;;;;;;;4.57;1.60;;;19.00;80.80;;;;;;5026124;28;20021;-87
2022/07/06 06:56:32;;;;;;;2.58;1.48;;;19.00;81.00;;;;;;5020008;28;20467;-88
2022/07/06 06:58:58;;;;;;;4.55;1.92;;;19.00;81.10;;;;;;5026309;28;20076;-87
2022/07/06 07:01:23;;;;;;;4.75;2.05;;;19.10;81.20;;;;;;5021837;28;20087;-87
2022/07/06 07:03:50;;;;;;;7.20;2.45;;;19.10;81.10;;;;;;5020125;28;20030;-88
2022/07/06 07:06:16;;;;;;;8.57;1.85;;;19.00;81.20;;;;;;5022876;28;20505;-88
2022/07/06 07:08:42;;;;;;;4.13;1.60;;;19.00;81.90;;;;;;5021539;28;20034;-87
2022/07/06 07:11:07;;;;;;;4.15;1.38;;;19.00;81.80;;;;;;5024406;28;20034;-88
2022/07/06 07:13:33;;;;;;;3.03;1.58;;;19.10;82.30;;;;;;5023965;28;20029;-87
2022/07/06 07:15:59;;;;;;;5.55;1.60;;;19.10;82.40;;;;;;5024314;28;20037;-89
2022/07/06 07:18:25;;;;;;;3.22;1.67;;;19.20;82.10;;;;;;5027582;28;20034;-88
2022/07/06 07:20:50;;;;;;;2.97;1.65;;;19.20;82.10;;;;;;5034430;28;20029;-87
2022/07/06 07:23:16;;;;;;;4.20;1.90;;;19.20;81.60;;;;;;5028352;28;20033;-88
2022/07/06 07:25:42;;;;;;;6.50;2.50;;;19.30;81.70;;;;;;5033530;28;20030;-88
2022/07/06 07:28:07;;;;;;;4.53;1.55;;;19.30;82.00;;;;;;5030507;28;20041;-89
2022/07/06 07:30:33;;;;;;;3.78;1.38;;;19.20;81.30;;;;;;5030721;28;20032;-88
2022/07/06 07:33:00;;;;;;;6.13;1.58;;;19.30;81.50;;;;;;5023729;28;20489;-88
2022/07/06 07:35:26;;;;;;;5.20;1.80;;;19.30;81.50;;;;;;5024651;28;20030;-88
2022/07/06 07:37:52;;;;;;;3.35;1.40;;;19.30;80.80;;;;;;5027520;28;20033;-88
2022/07/06 07:40:18;;;;;;;6.45;1.67;;;19.30;81.00;;;;;;5020878;28;20034;-89
2022/07/06 07:42:45;;;;;;;4.50;1.67;;;19.30;80.50;;;;;;5026476;28;20485;-88
2022/07/06 07:45:11;;;;;;;4.03;1.42;;;19.30;80.10;;;;;;5022947;28;21034;-88
2022/07/06 07:47:38;;;;;;;3.50;1.40;;;19.30;80.30;;;;;;5017958;28;20062;-89
2022/07/06 07:50:05;;;;;;;9.80;1.70;;;19.30;80.70;;;;;;5016784;28;20356;-88
2022/07/06 07:52:31;;;;;;;5.05;1.70;;;19.30;80.70;;;;;;5020895;28;20029;-86
2022/07/06 07:54:56;;;;;;;1.80;1.50;;;19.40;80.60;;;;;;5027533;28;20022;-87
2022/07/06 07:57:22;;;;;;;5.82;1.60;;;19.40;79.90;;;;;;5014193;28;20022;-86
2022/07/06 07:59:48;;;;;;;4.30;1.40;;;19.30;80.10;;;;;;5022759;28;20045;-86
2022/07/06 08:02:13;;;;;;;6.80;1.35;;;19.30;80.20;;;;;;5032043;28;20459;-87
2022/07/06 08:04:39;;;;;;;4.47;1.60;;;19.40;79.50;;;;;;5022146;28;20038;-86
2022/07/06 08:07:05;;;;;;;4.07;1.50;;;19.40;79.10;;;;;;5017391;28;20030;-86
2022/07/06 08:09:31;;;;;;;4.32;1.77;;;19.40;79.00;;;;;;5018716;28;20034;-88
2022/07/06 08:11:58;;;;;;;2.67;1.88;;;19.40;79.20;;;;;;5029476;28;20026;-89
2022/07/06 08:14:23;;;;;;;2.72;1.40;;;19.40;79.40;;;;;;5023920;28;20116;-88
2022/07/06 08:16:49;;;;;;;2.33;1.50;;;19.40;79.70;;;;;;5018772;28;20061;-88
2022/07/06 08:19:15;;;;;;;3.33;1.45;;;19.50;79.90;;;;;;5012081;28;20037;-88
2022/07/06 08:21:41;;;;;;;5.20;1.45;;;19.50;79.90;;;;;;5024498;28;20104;-88
2022/07/06 08:24:07;;;;;;;3.70;1.73;;;19.50;80.00;;;;;;5016247;28;20030;-89
2022/07/06 08:26:33;;;;;;;3.83;1.50;;;19.50;79.50;;;;;;5026591;28;20026;-88
2022/07/06 08:28:59;;;;;;;3.28;1.52;;;19.50;79.40;;;;;;5015267;28;20034;-90
2022/07/06 08:31:27;;;;;;;5.57;1.63;;;19.50;79.30;;;;;;5012678;28;20088;-88
2022/07/06 08:33:53;;;;;;;4.97;1.65;;;19.50;79.40;;;;;;5020304;28;20044;-88
2022/07/06 08:36:20;;;;;;;3.40;1.70;;;19.50;79.70;;;;;;5025072;28;20463;-88
2022/07/06 08:38:47;;;;;;;5.65;1.52;;;19.60;79.30;;;;;;5029138;28;20152;-88
2022/07/06 08:41:15;;;;;;;4.82;1.80;;;19.70;79.30;;;;;;5028945;28;20030;-89
2022/07/06 08:43:40;;;;;;;2.55;1.40;;;19.80;79.40;;;;;;5024914;28;20026;-89
2022/07/06 08:46:07;;;;;;;3.78;1.35;;;19.80;79.10;;;;;;5021143;28;20037;-89
2022/07/06 08:48:36;;;;;;;3.55;1.80;;;19.90;78.80;;;;;;5026251;28;20037;-89
2022/07/06 08:51:03;;;;;;;1.65;1.42;;;19.90;78.30;;;;;;5009201;28;20029;-89
2022/07/06 08:53:29;;;;;;;4.53;1.45;;;19.90;78.00;;;;;;5028214;28;20017;-88
2022/07/06 08:55:55;;;;;;;6.93;1.70;;;19.90;77.20;;;;;;5014960;28;20466;-89
2022/07/06 08:58:24;;;;;;;5.78;1.70;;;19.90;77.10;;;;;;5024265;28;20048;-88
2022/07/06 09:00:50;;;;;;;3.92;1.50;;;20.00;77.40;;;;;;5016674;28;20392;-88
2022/07/06 09:03:16;;;;;;;5.00;1.50;;;20.00;77.30;;;;;;5024444;28;20033;-88
2022/07/06 09:05:45;;;;;;;6.97;1.58;;;20.00;77.20;;;;;;5002712;28;20034;-89
2022/07/06 09:08:12;;;;;;;6.53;1.67;;;20.00;77.70;;;;;;5007126;28;20064;-88
2022/07/06 09:10:37;;;;;;;6.68;1.52;;;20.00;76.90;;;;;;5008181;28;20042;-86
2022/07/06 09:13:08;;;;;;;3.17;1.33;;;20.00;76.40;;;;;;5006476;28;20380;-87
2022/07/06 09:15:40;;;;;;;4.73;1.27;;;20.10;77.20;;;;;;5009093;28;20045;-87
2022/07/06 09:18:07;;;;;;;4.60;1.15;;;20.10;76.70;;;;;;5013193;28;20301;-89
2022/07/06 09:20:33;;;;;;;6.07;1.90;;;20.20;77.30;;;;;;5013307;28;20227;-88
2022/07/06 09:23:06;;;;;;;6.57;1.50;;;20.20;76.60;;;;;;5008627;28;20048;-86
2022/07/06 09:25:34;;;;;;;5.32;1.10;;;20.20;76.90;;;;;;5008071;28;20116;-87
2022/07/06 09:28:00;;;;;;;5.18;1.40;;;20.30;77.00;;;;;;5022982;28;20075;-89
2022/07/06 09:30:27;;;;;;;5.15;1.40;;;20.30;76.70;;;;;;5010810;28;20029;-88
2022/07/06 09:32:55;;;;;;;3.03;1.33;;;20.30;76.50;;;;;;5006657;28;20483;-87
2022/07/06 09:35:52;;;;;;;4.70;1.40;;;20.30;76.00;;;;;;5003347;28;20033;-88
2022/07/06 09:38:18;;;;;;;7.65;1.40;;;20.40;75.20;;;;;;4999774;28;20045;-87
2022/07/06 09:40:45;;;;;;;2.88;1.30;;;20.40;74.90;;;;;;5015281;28;20048;-87
2022/07/06 09:43:14;;;;;;;3.63;1.30;;;20.40;75.00;;;;;;5032631;28;20014;-88
2022/07/06 09:45:41;;;;;;;3.67;1.52;;;20.40;74.50;;;;;;5016447;28;20458;-87
2022/07/06 09:48:09;;;;;;;3.67;1.77;;;20.40;74.10;;;;;;5023301;28;20507;-87
2022/07/06 09:50:50;;;;;;;4.35;1.48;;;20.40;73.80;;;;;;5016899;28;20034;-87
2022/07/06 09:53:17;;;;;;;1.92;1.20;;;20.40;73.90;;;;;;5032613;28;20513;-87
2022/07/06 09:55:54;;;;;;;4.38;2.30;;;20.40;74.10;;;;;;5025965;28;20026;-88
2022/07/06 09:58:21;;;;;;;5.00;1.60;;;20.40;74.80;;;;;;5015573;28;20030;-87
2022/07/06 10:00:48;;;;;;;4.75;1.80;;;20.60;75.00;;;;;;5020376;28;20032;-88
2022/07/06 10:03:15;;;;;;;4.32;1.40;;;20.60;74.50;;;;;;5023705;28;20040;-88
2022/07/06 10:05:43;;;;;;;2.60;1.30;;;20.70;74.10;;;;;;5025394;28;20038;-88
2022/07/06 10:08:09;;;;;;;5.82;1.65;;;20.70;73.50;;;;;;5025240;28;20093;-88
2022/07/06 10:10:37;;;;;;;4.93;1.40;;;20.80;74.00;;;;;;5034871;28;20104;-88
2022/07/06 10:13:06;;;;;;;4.35;1.45;;;20.90;73.70;;;;;;5019779;28;20067;-89
2022/07/06 10:15:32;;;;;;;2.40;1.23;;;21.00;73.50;;;;;;5034178;28;20021;-88
2022/07/06 10:18:00;;;;;;;3.20;1.17;;;21.20;73.40;;;;;;5033773;28;20048;-90
2022/07/06 10:20:29;;;;;;;5.40;1.63;;;21.40;72.70;;;;;;5033696;28;20470;-89
2022/07/06 10:22:59;;;;;;;3.97;1.40;;;21.50;71.40;;;;;;5031521;28;20439;-90
2022/07/06 10:25:25;;;;;;;2.90;1.42;;;21.50;72.70;;;;;;5027202;28;20093;-89
2022/07/06 10:27:52;;;;;;;2.45;1.40;;;21.70;71.60;;;;;;5015338;28;20068;-88
2022/07/06 10:30:17;;;;;;;1.77;1.40;;;21.90;72.50;;;;;;5015134;28;20065;-90
2022/07/06 10:32:46;;;;;;;7.45;2.05;;;22.00;71.30;;;;;;5014520;28;20066;-90
2022/07/06 10:35:13;;;;;;;3.70;1.40;;;22.00;70.80;;;;;;5021368;28;20034;-90
2022/07/06 10:37:39;;;;;;;4.85;1.52;;;22.00;70.90;;;;;;5024208;28;20474;-89
2022/07/06 10:42:59;;;;;;;4.65;1.38;;;22.00;71.20;;;;;;5033675;28;20028;-88
2022/07/06 10:45:27;;;;;;;3.60;1.27;;;22.00;70.80;;;;;;5017422;28;20022;-88
2022/07/06 10:48:11;;;;;;;5.97;1.58;;;22.10;70.70;;;;;;5028036;28;20117;-88
2022/07/06 10:50:46;;;;;;;5.28;2.10;;;22.10;69.90;;;;;;5016316;28;20022;-88
2022/07/06 10:53:13;;;;;;;5.43;1.38;;;22.20;70.40;;;;;;5013805;28;20030;-88
2022/07/06 10:55:49;;;;;;;1.40;1.20;;;22.20;69.50;;;;;;5015044;28;20470;-88
2022/07/06 10:58:15;;;;;;;2.22;1.10;;;22.20;69.50;;;;;;5013700;28;20171;-88
2022/07/06 11:00:55;;;;;;;2.47;1.30;;;22.10;69.80;;;;;;5015419;28;20029;-88
2022/07/06 11:03:39;;;;;;;2.80;1.30;;;22.20;70.10;;;;;;5028900;28;20128;-88
2022/07/06 11:06:08;;;;;;;2.47;1.27;;;22.20;70.20;;;;;;5027024;28;20030;-88
2022/07/06 11:08:54;;;;;;;7.22;1.20;;;22.20;70.30;;;;;;5018965;28;20026;-88
2022/07/06 11:11:33;;;;;;;2.15;1.23;;;22.10;70.40;;;;;;5021591;28;20030;-88
2022/07/06 11:14:02;;;;;;;4.10;1.35;;;22.00;70.50;;;;;;5021571;28;20058;-90
2022/07/06 11:16:52;;;;;;;2.97;1.27;;;22.00;70.10;;;;;;5028454;28;20027;-89
2022/07/06 11:19:23;;;;;;;3.70;1.23;;;22.10;70.50;;;;;;5022250;28;20044;-89
2022/07/06 11:21:56;;;;;;;3.35;1.42;;;22.10;71.20;;;;;;5033333;28;20454;-89
2022/07/06 11:24:30;;;;;;;4.15;1.27;;;22.00;71.00;;;;;;5018463;28;20068;-88
2022/07/06 11:26:57;;;;;;;3.35;1.20;;;22.10;70.90;;;;;;5029964;28;20478;-87
2022/07/06 11:29:24;;;;;;;4.88;1.45;;;22.10;70.00;;;;;;5026602;28;20025;-87
2022/07/06 11:31:55;;;;;;;4.20;1.25;;;22.10;69.40;;;;;;5023317;28;20022;-87
2022/07/06 11:34:26;;;;;;;3.88;1.20;;;22.30;69.80;;;;;;5022146;28;20108;-87
2022/07/06 11:37:03;;;;;;;4.05;1.20;;;22.40;70.00;;;;;;5023696;28;20033;-87
2022/07/06 11:39:32;;;;;;;2.80;1.35;;;22.50;68.80;;;;;;5022291;28;20084;-88
2022/07/06 11:41:58;;;;;;;2.90;1.35;;;22.50;69.70;;;;;;5030880;28;20080;-89
2022/07/06 11:44:24;;;;;;;1.85;1.00;;;22.60;69.50;;;;;;5031152;28;20095;-85
2022/07/06 11:46:50;;;;;;;3.28;1.30;;;22.80;68.90;;;;;;5028547;28;20126;-87
2022/07/06 11:49:17;;;;;;;5.43;1.27;;;23.00;70.00;;;;;;5016816;28;20359;-87
2022/07/06 11:51:45;;;;;;;2.60;0.98;;;23.20;69.10;;;;;;5031228;28;20029;-88
2022/07/06 11:54:16;;;;;;;4.07;1.02;;;23.20;68.00;;;;;;5031757;28;20018;-89
2022/07/06 11:57:00;;;;;;;;;;;23.20;68.10;;;;;;5029412;28;20060;-87
2022/07/06 11:59:46;;;;;;;3.47;1.10;;;23.00;68.00;;;;;;5031090;28;19913;-88
2022/07/06 12:02:15;;;;;;;3.13;1.00;;;22.90;67.60;;;;;;5030568;28;20124;-89
2022/07/06 12:04:43;;;;;;;4.93;1.40;;;22.90;67.90;;;;;;5030123;28;20169;-89
2022/07/06 12:07:14;;;;;;;3.92;2.22;;;23.00;68.00;;;;;;5014436;28;20022;-89
2022/07/06 12:09:42;;;;;;;5.53;2.78;;;23.10;68.00;;;;;;5022366;28;20029;-89
2022/07/06 12:12:09;;;;;;;4.25;1.33;;;23.10;68.60;;;;;;5028926;28;20112;-89
2022/07/06 12:14:36;;;;;;;3.42;1.50;;;23.30;68.70;;;;;;5023509;28;20037;-89
2022/07/06 12:17:14;;;;;;;4.47;1.23;;;23.50;66.00;;;;;;5020346;28;20394;-89
2022/07/06 12:19:41;;;;;;;2.50;1.15;;;23.50;66.30;;;;;;5021522;28;20052;-89
2022/07/06 12:22:07;;;;;;;4.60;1.30;;;23.50;66.70;;;;;;5024993;28;20029;-89
2022/07/06 12:24:35;;;;;;;4.75;1.27;;;23.40;67.00;;;;;;5024077;28;20049;-89
2022/07/06 12:27:33;;;;;;;1.50;1.00;;;23.20;66.60;;;;;;5026895;28;20026;-89
2022/07/06 12:30:09;;;;;;;1.60;1.00;;;23.20;67.20;;;;;;5013698;28;20402;-89
2022/07/06 12:32:36;;;;;;;1.60;1.00;;;23.30;67.30;;;;;;5030265;28;20030;-89
2022/07/06 12:35:09;;;;;;;3.30;1.15;;;23.50;67.70;;;;;;5029834;28;20061;-88
2022/07/06 12:37:35;;;;;;;4.18;0.90;;;23.60;64.80;;;;;;5026211;28;20108;-88
2022/07/06 12:40:02;;;;;;;1.65;0.90;;;23.70;63.40;;;;;;5024636;28;20497;-89
2022/07/06 12:42:28;;;;;;;5.80;1.25;;;23.80;64.00;;;;;;5017991;28;20486;-90
2022/07/06 12:44:54;;;;;;;2.47;1.13;;;23.80;63.90;;;;;;5033821;28;20020;-89
2022/07/06 12:47:21;;;;;;;6.10;1.20;;;23.80;63.80;;;;;;5030585;28;20034;-89
2022/07/06 12:50:03;;;;;;;2.47;1.10;;;23.90;63.60;;;;;;5017709;28;20038;-89
2022/07/06 12:52:29;;;;;;;5.57;1.13;;;24.00;64.00;;;;;;5017754;28;20447;-89
2022/07/06 12:54:54;;;;;;;3.78;1.27;;;23.80;63.10;;;;;;5032700;28;20049;-89